Time;durP1;ratioP1;P1;durP2;ratioP2;P2;SDS_P1;SDS_P2;PMS_P1;PMS_P2;Temp;Humidity;BMP_temperature;BMP_pressure;BME280_temperature;BME280_humidity;BME280_pressure;Samples;Min_cycle;Max_cycle;Signal;HPM_P1;HPM_P2
2022/10/27 00:01:09;;;;;;;5.07;2.27;;;10.50;99.90;10.80;97737.00;;;;4937670;29;20224;-70
2022/10/27 00:03:58;;;;;;;4.70;2.27;;;10.30;99.90;11.30;97741.00;;;;4950782;28;20611;-69
2022/10/27 00:06:46;;;;;;;4.80;2.73;;;10.30;99.90;11.70;97750.00;;;;4935855;28;20260;-69
2022/10/27 00:09:35;;;;;;;5.70;2.53;;;10.30;99.90;11.80;97745.00;;;;4933952;29;20576;-69
2022/10/27 00:12:24;;;;;;;2.47;2.27;;;10.40;99.90;11.40;97750.00;;;;4934380;29;20255;-69
2022/10/27 00:15:13;;;;;;;3.27;2.97;;;10.40;99.90;11.10;97757.00;;;;4944866;29;20239;-70
2022/10/27 00:18:09;;;;;;;4.17;2.80;;;10.30;99.90;11.30;97757.00;;;;4952466;29;20274;-69
2022/10/27 00:21:00;;;;;;;3.23;2.57;;;10.30;99.90;11.60;97770.00;;;;4946751;29;20323;-69
2022/10/27 00:23:50;;;;;;;4.90;2.53;;;10.30;99.90;11.60;97766.00;;;;4950649;28;20295;-69
2022/10/27 00:26:38;;;;;;;5.50;2.73;;;10.30;99.90;11.60;97758.00;;;;4945524;28;20204;-69
2022/10/27 00:29:27;;;;;;;2.40;2.20;;;10.30;99.90;11.60;97758.00;;;;4948521;28;20243;-69
2022/10/27 00:32:16;;;;;;;4.10;2.70;;;10.40;99.90;11.60;97762.00;;;;4949780;28;20303;-69
2022/10/27 00:35:07;;;;;;;3.97;2.07;;;10.40;99.90;11.40;97757.00;;;;4951636;29;20200;-69
2022/10/27 00:37:56;;;;;;;3.33;2.73;;;10.40;99.90;11.60;97770.00;;;;4953588;28;20240;-69
2022/10/27 00:40:44;;;;;;;4.03;2.60;;;10.40;99.90;11.50;97771.00;;;;4953055;28;20283;-69
2022/10/27 00:43:35;;;;;;;3.50;2.10;;;10.30;99.90;11.40;97760.00;;;;4953531;28;20746;-69
2022/10/27 00:46:34;;;;;;;11.33;3.70;;;10.30;99.90;11.20;97767.00;;;;4953476;28;20212;-70
2022/10/27 00:49:29;;;;;;;4.73;2.50;;;10.20;99.90;11.00;97757.00;;;;4951321;29;20208;-69
2022/10/27 00:52:27;;;;;;;2.20;1.87;;;10.10;99.90;11.30;97767.00;;;;4952215;29;20271;-70
2022/10/27 00:55:19;;;;;;;3.47;2.10;;;10.10;99.90;11.10;97773.00;;;;4944776;29;20204;-69
2022/10/27 00:58:14;;;;;;;2.80;2.13;;;10.00;99.90;11.00;97771.00;;;;4947256;28;20255;-69
2022/10/27 01:01:04;;;;;;;2.13;1.90;;;10.00;99.90;10.70;97772.00;;;;4940342;29;20293;-69
2022/10/27 01:03:53;;;;;;;3.83;2.10;;;9.90;99.90;10.50;97777.00;;;;4937309;28;20625;-69
2022/10/27 01:06:42;;;;;;;4.50;2.17;;;9.80;99.90;10.60;97780.00;;;;4934171;29;20688;-70
2022/10/27 01:09:32;;;;;;;2.00;1.80;;;9.80;99.90;10.50;97788.00;;;;4937919;29;20211;-69
2022/10/27 01:12:21;;;;;;;2.00;1.80;;;9.70;99.90;10.30;97780.00;;;;4946712;28;20283;-71
2022/10/27 01:15:15;;;;;;;5.63;2.43;;;9.60;99.90;10.40;97776.00;;;;4948198;29;20197;-70
2022/10/27 01:18:16;;;;;;;3.77;2.00;;;9.60;99.90;10.50;97778.00;;;;4948006;28;20248;-69
2022/10/27 01:21:39;;;;;;;2.60;1.97;;;9.60;99.90;10.50;97768.00;;;;4952721;28;20223;-70
2022/10/27 01:25:01;;;;;;;1.63;1.53;;;9.60;99.90;10.90;97789.00;;;;4952367;28;20208;-68
2022/10/27 01:28:37;;;;;;;2.77;1.63;;;9.70;99.90;11.00;97788.00;;;;4943743;28;20269;-69
2022/10/27 01:31:30;;;;;;;3.07;1.80;;;9.80;99.90;10.90;97792.00;;;;4931441;29;20302;-69
2022/10/27 01:34:29;;;;;;;10.23;2.70;;;9.80;99.90;11.10;97788.00;;;;4943693;28;20354;-69
2022/10/27 01:37:23;;;;;;;2.20;1.83;;;9.90;99.90;10.40;97785.00;;;;4931808;29;20208;-69
2022/10/27 01:40:21;;;;;;;4.87;2.13;;;9.80;99.90;10.50;97784.00;;;;4942087;29;20251;-69
2022/10/27 01:43:16;;;;;;;2.97;1.70;;;9.60;99.90;10.60;97789.00;;;;4945590;28;20566;-69
2022/10/27 01:46:08;;;;;;;5.57;2.40;;;9.60;99.90;10.80;97794.00;;;;4950384;28;20208;-69
2022/10/27 01:48:58;;;;;;;4.23;2.00;;;9.60;99.90;10.90;97790.00;;;;4944181;28;20228;-68
2022/10/27 01:51:48;;;;;;;3.73;2.60;;;9.70;99.90;10.70;97792.00;;;;4933320;29;20229;-69
2022/10/27 01:54:37;;;;;;;3.80;1.83;;;9.70;99.90;10.60;97806.00;;;;4956277;28;20208;-69
2022/10/27 01:57:40;;;;;;;2.57;1.83;;;9.70;99.90;10.40;97797.00;;;;4950457;29;20200;-68
2022/10/27 02:00:33;;;;;;;9.87;2.00;;;9.60;99.90;10.30;97802.00;;;;4937910;28;20207;-69
2022/10/27 02:03:33;;;;;;;4.97;1.80;;;9.50;99.90;10.00;97798.00;;;;4943668;28;20673;-72
2022/10/27 02:06:31;;;;;;;4.53;2.00;;;9.40;99.90;10.00;97797.00;;;;4933984;28;20253;-70
2022/10/27 02:09:26;;;;;;;4.17;2.10;;;9.30;99.90;10.50;97797.00;;;;4934535;29;20287;-69
2022/10/27 02:12:22;;;;;;;7.40;1.87;;;9.30;99.90;10.40;97801.00;;;;4947970;28;20232;-70
2022/10/27 02:15:24;;;;;;;3.73;2.40;;;9.30;99.90;10.20;97796.00;;;;4942462;28;20196;-70
2022/10/27 02:18:18;;;;;;;2.20;1.70;;;9.30;99.90;9.70;97804.00;;;;4950034;29;20210;-69
2022/10/27 02:21:10;;;;;;;2.20;1.60;;;9.10;99.90;9.80;97797.00;;;;4933114;28;20941;-71
2022/10/27 02:24:00;;;;;;;5.20;2.07;;;9.00;99.90;9.80;97808.00;;;;4932912;28;20209;-68
2022/10/27 02:26:55;;;;;;;1.67;1.50;;;9.00;99.90;9.80;97803.00;;;;4946370;29;20627;-69
2022/10/27 02:29:48;;;;;;;2.37;1.90;;;9.10;99.90;9.70;97802.00;;;;4946568;28;20224;-68
2022/10/27 02:32:37;;;;;;;3.63;2.40;;;9.10;99.90;9.60;97808.00;;;;4945018;28;20228;-69
2022/10/27 02:35:27;;;;;;;6.30;2.00;;;9.00;99.90;9.60;97812.00;;;;4933704;29;20284;-69
2022/10/27 02:38:15;;;;;;;2.70;2.00;;;9.00;99.90;9.70;97809.00;;;;4931917;29;20260;-69
2022/10/27 02:41:06;;;;;;;3.83;1.70;;;8.90;99.90;10.10;97818.00;;;;4949586;28;20288;-69
2022/10/27 02:43:55;;;;;;;3.50;1.90;;;9.00;99.90;10.20;97816.00;;;;4942230;28;20200;-69
2022/10/27 02:46:44;;;;;;;3.97;2.00;;;9.00;99.90;10.30;97802.00;;;;4945939;28;20205;-68
2022/10/27 02:49:32;;;;;;;3.53;2.00;;;9.10;99.90;10.10;97820.00;;;;4940475;28;20235;-69
2022/10/27 02:52:21;;;;;;;4.30;1.73;;;9.10;99.90;9.60;97820.00;;;;4936583;28;20275;-69
2022/10/27 02:55:10;;;;;;;9.17;2.27;;;9.00;99.90;9.80;97818.00;;;;4955044;28;20208;-68
2022/10/27 02:58:00;;;;;;;6.10;2.23;;;8.90;99.90;9.80;97814.00;;;;4953005;28;20207;-68
2022/10/27 03:00:54;;;;;;;3.43;1.70;;;8.90;99.90;10.00;97823.00;;;;4943942;28;20290;-70
2022/10/27 03:03:43;;;;;;;2.47;1.67;;;9.00;99.90;10.00;97817.00;;;;4946071;28;20236;-69
2022/10/27 03:06:31;;;;;;;7.03;2.00;;;9.00;99.90;10.10;97821.00;;;;4944313;28;20199;-69
2022/10/27 03:09:20;;;;;;;2.80;2.20;;;9.10;99.90;10.40;97812.00;;;;4942768;28;20240;-69
2022/10/27 03:12:09;;;;;;;2.87;2.27;;;9.20;99.90;10.50;97815.00;;;;4936491;28;20256;-69
2022/10/27 03:14:59;;;;;;;4.40;2.37;;;9.20;99.90;10.40;97824.00;;;;4942537;29;20203;-69
2022/10/27 03:17:49;;;;;;;2.47;2.27;;;9.30;99.90;10.20;97827.00;;;;4946063;28;20319;-69
2022/10/27 03:20:37;;;;;;;5.27;1.73;;;9.20;99.90;10.30;97820.00;;;;4948111;29;20208;-69
2022/10/27 03:23:26;;;;;;;3.83;1.80;;;9.20;99.90;10.20;97819.00;;;;4953824;28;20231;-69
2022/10/27 03:26:15;;;;;;;3.47;2.57;;;9.10;99.90;9.80;97826.00;;;;4947129;28;20205;-69
2022/10/27 03:29:03;;;;;;;1.73;1.53;;;9.10;99.90;9.90;97821.00;;;;4948769;28;20236;-69
2022/10/27 03:31:53;;;;;;;2.60;2.20;;;9.00;99.90;10.00;97824.00;;;;4946484;28;20315;-69
2022/10/27 03:34:42;;;;;;;2.83;1.80;;;9.00;99.90;9.70;97817.00;;;;4944789;28;20204;-68
2022/10/27 03:37:31;;;;;;;2.83;2.00;;;8.90;99.90;9.60;97825.00;;;;4951128;28;20243;-68
2022/10/27 03:40:19;;;;;;;2.20;1.57;;;8.90;99.90;9.30;97822.00;;;;4944947;28;20673;-69
2022/10/27 03:43:09;;;;;;;3.07;1.80;;;8.80;99.90;9.40;97831.00;;;;4949405;29;20287;-68
2022/10/27 03:45:58;;;;;;;3.50;2.30;;;8.70;99.90;9.60;97838.00;;;;4948014;29;20212;-69
2022/10/27 03:48:48;;;;;;;2.67;1.80;;;8.70;99.90;9.50;97819.00;;;;4952756;28;20220;-69
2022/10/27 03:51:37;;;;;;;2.57;2.03;;;8.70;99.90;9.80;97834.00;;;;4948308;28;20263;-69
2022/10/27 03:54:29;;;;;;;2.77;1.93;;;8.70;99.90;9.90;97843.00;;;;4952466;28;20271;-69
2022/10/27 03:57:18;;;;;;;2.60;2.40;;;8.80;99.90;9.90;97831.00;;;;4934488;29;20204;-69
2022/10/27 04:00:09;;;;;;;8.30;2.00;;;8.90;99.90;9.80;97834.00;;;;4943715;28;20281;-69
2022/10/27 04:02:57;;;;;;;3.93;2.13;;;8.90;99.90;9.90;97827.00;;;;4944956;29;20240;-69
2022/10/27 04:05:51;;;;;;;3.30;2.30;;;9.00;99.90;10.10;97831.00;;;;4943893;29;20245;-69
2022/10/27 04:08:40;;;;;;;7.20;1.83;;;9.10;99.90;9.80;97833.00;;;;4937284;28;20231;-68
2022/10/27 04:11:28;;;;;;;3.03;2.40;;;9.00;99.90;9.80;97841.00;;;;4949710;28;20224;-69
2022/10/27 04:14:17;;;;;;;1.73;1.63;;;8.90;99.90;9.70;97842.00;;;;4948059;28;20216;-68
2022/10/27 04:17:06;;;;;;;6.10;2.10;;;8.90;99.90;9.40;97842.00;;;;4949443;28;20676;-68
2022/10/27 04:19:55;;;;;;;3.33;1.93;;;8.80;99.90;9.60;97847.00;;;;4940031;28;20213;-71
2022/10/27 04:22:45;;;;;;;3.20;2.90;;;8.80;99.90;10.00;97859.00;;;;4934843;28;20287;-68
2022/10/27 04:25:34;;;;;;;5.77;2.70;;;9.00;99.90;9.90;97853.00;;;;4945215;28;20235;-68
2022/10/27 04:28:23;;;;;;;7.27;2.70;;;9.10;99.90;9.80;97853.00;;;;4951304;28;20204;-67
2022/10/27 04:31:12;;;;;;;3.13;2.60;;;9.10;99.90;10.10;97861.00;;;;4951570;28;20652;-68
2022/10/27 04:34:01;;;;;;;8.03;2.23;;;9.20;99.90;10.20;97875.00;;;;4945237;28;20326;-69
2022/10/27 04:36:49;;;;;;;5.83;2.83;;;9.30;99.90;10.30;97863.00;;;;4952312;29;20701;-69
2022/10/27 04:39:39;;;;;;;1.87;1.77;;;9.30;99.90;10.00;97862.00;;;;4946378;28;20212;-70
2022/10/27 04:42:28;;;;;;;5.20;2.80;;;9.20;99.90;10.10;97868.00;;;;4948530;28;20233;-70
2022/10/27 04:45:17;;;;;;;4.50;2.50;;;9.10;99.90;10.20;97870.00;;;;4943941;28;20208;-70
2022/10/27 04:48:06;;;;;;;4.93;3.07;;;9.10;99.90;10.30;97883.00;;;;4945806;28;20199;-70
2022/10/27 04:50:54;;;;;;;8.73;3.03;;;9.20;99.90;10.20;97878.00;;;;4934879;28;20295;-68
2022/10/27 04:53:43;;;;;;;4.37;2.27;;;9.20;99.90;10.10;97882.00;;;;4944610;28;20246;-69
2022/10/27 04:56:33;;;;;;;5.80;1.90;;;9.20;99.90;10.00;97890.00;;;;4947378;28;20282;-71
2022/10/27 04:59:22;;;;;;;8.30;5.03;;;9.10;99.90;9.70;97877.00;;;;4950707;28;20208;-69
2022/10/27 05:02:10;;;;;;;4.93;4.30;;;9.10;99.90;9.30;97872.00;;;;4948332;28;20303;-67
2022/10/27 05:04:59;;;;;;;9.90;4.67;;;8.90;99.90;9.60;97887.00;;;;4933082;28;20205;-70
2022/10/27 05:07:52;;;;;;;6.60;4.90;;;8.80;99.90;10.00;97890.00;;;;4933962;28;20236;-68
2022/10/27 05:10:41;;;;;;;6.03;3.60;;;8.80;99.90;10.00;97898.00;;;;4947155;29;20378;-68
2022/10/27 05:13:31;;;;;;;7.83;3.47;;;8.90;99.90;10.20;97902.00;;;;4945426;28;20267;-68
2022/10/27 05:16:20;;;;;;;6.57;3.73;;;9.00;99.90;10.20;97907.00;;;;4949597;28;20204;-68
2022/10/27 05:19:09;;;;;;;3.83;2.57;;;9.00;99.90;10.30;97906.00;;;;4946181;28;20220;-70
2022/10/27 05:21:57;;;;;;;5.73;3.10;;;9.10;99.90;10.20;97906.00;;;;4941342;28;20223;-69
2022/10/27 05:24:46;;;;;;;4.10;2.80;;;9.10;99.90;10.30;97905.00;;;;4948454;28;20298;-68
2022/10/27 05:27:35;;;;;;;2.77;2.43;;;9.20;99.90;10.40;97909.00;;;;4952637;28;20192;-69
2022/10/27 05:30:25;;;;;;;8.10;3.40;;;9.30;99.90;10.30;97913.00;;;;4945198;28;20285;-69
2022/10/27 05:33:14;;;;;;;7.47;3.33;;;9.30;99.90;10.30;97905.00;;;;4935419;28;20246;-69
2022/10/27 05:36:03;;;;;;;7.97;4.40;;;9.30;99.90;10.50;97897.00;;;;4938628;28;20205;-69
2022/10/27 05:38:52;;;;;;;9.37;3.20;;;9.30;99.90;10.40;97895.00;;;;4939116;28;20203;-68
2022/10/27 05:41:40;;;;;;;4.00;2.67;;;9.30;99.90;9.90;97900.00;;;;4946386;29;20723;-69
2022/10/27 05:44:29;;;;;;;4.43;3.37;;;9.20;99.90;9.50;97908.00;;;;4949965;28;20291;-68
2022/10/27 05:47:19;;;;;;;2.13;1.93;;;9.10;99.90;9.20;97903.00;;;;4947819;28;20282;-70
2022/10/27 05:50:09;;;;;;;3.43;2.20;;;8.80;99.90;9.60;97918.00;;;;4952259;28;20230;-69
2022/10/27 05:52:58;;;;;;;3.03;2.60;;;8.80;99.90;9.70;97918.00;;;;4946864;28;20555;-69
2022/10/27 05:55:46;;;;;;;3.80;2.80;;;8.80;99.90;9.40;97930.00;;;;4952939;28;20227;-69
2022/10/27 05:58:35;;;;;;;9.30;2.93;;;8.70;99.90;9.30;97925.00;;;;4954347;28;20236;-68
2022/10/27 06:01:24;;;;;;;4.57;3.20;;;8.60;99.90;9.50;97937.00;;;;4955864;28;20241;-68
2022/10/27 06:04:14;;;;;;;4.37;3.30;;;8.60;99.90;9.80;97927.00;;;;4958498;28;20211;-68
2022/10/27 06:07:03;;;;;;;6.77;3.03;;;8.70;99.90;9.90;97933.00;;;;4950719;28;20204;-69
2022/10/27 06:09:51;;;;;;;6.50;3.90;;;8.80;99.90;9.90;97940.00;;;;4955285;28;20635;-69
2022/10/27 06:12:40;;;;;;;11.23;3.27;;;8.90;99.90;9.90;97942.00;;;;4949360;28;20701;-69
2022/10/27 06:15:29;;;;;;;2.47;2.17;;;8.90;99.90;10.10;97952.00;;;;4952368;28;20208;-68
2022/10/27 06:18:18;;;;;;;8.97;3.03;;;9.10;99.90;10.10;97943.00;;;;4951948;28;20198;-69
2022/10/27 06:21:08;;;;;;;5.03;2.97;;;9.10;99.90;10.10;97949.00;;;;4953725;28;20283;-68
2022/10/27 06:23:57;;;;;;;4.70;3.27;;;9.10;99.90;10.10;97956.00;;;;4950518;28;21032;-68
2022/10/27 06:26:45;;;;;;;6.50;3.90;;;9.20;99.90;10.10;97956.00;;;;4952872;28;20216;-69
2022/10/27 06:29:34;;;;;;;8.83;3.90;;;9.20;99.90;10.00;97947.00;;;;4952120;28;20211;-68
2022/10/27 06:32:23;;;;;;;6.17;3.53;;;9.20;99.90;9.80;97960.00;;;;4943871;29;20232;-71
2022/10/27 06:35:13;;;;;;;8.87;3.20;;;9.20;99.90;9.80;97965.00;;;;4952671;29;20200;-71
2022/10/27 06:38:03;;;;;;;3.90;3.30;;;9.10;99.90;9.60;97971.00;;;;4951283;28;20208;-68
2022/10/27 06:40:51;;;;;;;5.43;4.40;;;9.00;99.90;9.80;97962.00;;;;4950758;28;20278;-71
2022/10/27 06:43:40;;;;;;;7.87;3.33;;;9.10;99.90;9.80;97970.00;;;;4952224;28;20243;-71
2022/10/27 06:46:29;;;;;;;7.23;3.93;;;9.00;99.90;9.90;97973.00;;;;4948869;28;20294;-68
2022/10/27 06:49:17;;;;;;;4.77;3.37;;;9.10;99.90;10.00;97971.00;;;;4950404;28;20887;-69
2022/10/27 06:52:07;;;;;;;6.33;3.80;;;9.20;99.90;10.30;97982.00;;;;4950565;28;20232;-68
2022/10/27 06:54:57;;;;;;;7.10;2.87;;;9.30;99.90;10.10;97980.00;;;;4954496;28;20670;-71
2022/10/27 06:57:45;;;;;;;6.90;2.97;;;9.40;99.90;10.30;97975.00;;;;4944071;28;20234;-68
2022/10/27 07:00:35;;;;;;;9.00;3.20;;;9.40;99.90;10.10;97980.00;;;;4939435;29;20215;-69
2022/10/27 07:03:24;;;;;;;2.90;2.60;;;9.40;99.90;10.30;97976.00;;;;4952661;28;20260;-69
2022/10/27 07:06:13;;;;;;;4.33;3.00;;;9.40;99.90;10.50;97994.00;;;;4953190;29;20215;-70
2022/10/27 07:09:02;;;;;;;6.17;3.90;;;9.50;99.90;10.80;97992.00;;;;4948941;28;20208;-70
2022/10/27 07:11:53;;;;;;;5.90;3.83;;;9.60;99.90;11.00;97986.00;;;;4952698;28;20613;-71
2022/10/27 07:14:42;;;;;;;6.87;2.80;;;9.80;99.90;10.80;97986.00;;;;4949909;28;20219;-69
2022/10/27 07:17:30;;;;;;;4.90;3.00;;;9.80;99.90;11.00;97988.00;;;;4953930;28;20200;-70
2022/10/27 07:20:19;;;;;;;6.93;3.97;;;9.80;99.90;11.20;97994.00;;;;4957699;28;20250;-69
2022/10/27 07:23:10;;;;;;;6.53;3.20;;;10.00;99.90;11.10;97984.00;;;;4955823;28;20299;-70
2022/10/27 07:25:59;;;;;;;5.67;3.47;;;10.10;99.90;11.30;97990.00;;;;4948720;29;20720;-69
2022/10/27 07:28:49;;;;;;;5.90;4.53;;;10.10;99.90;11.30;97988.00;;;;4950941;28;20215;-70
2022/10/27 07:31:37;;;;;;;7.17;2.73;;;10.20;99.90;11.70;97993.00;;;;4949768;28;20260;-69
2022/10/27 07:34:26;;;;;;;10.50;4.37;;;10.30;99.90;12.10;97994.00;;;;4958866;28;20691;-69
2022/10/27 07:37:17;;;;;;;11.47;5.33;;;10.50;99.90;12.50;97995.00;;;;4948660;28;20235;-68
2022/10/27 07:40:08;;;;;;;6.70;5.03;;;10.70;99.90;12.70;97995.00;;;;4954309;28;20219;-70
2022/10/27 07:42:58;;;;;;;9.30;4.70;;;11.00;99.90;12.80;97998.00;;;;4947648;28;20260;-69
2022/10/27 07:45:49;;;;;;;11.60;5.70;;;11.20;99.90;12.90;97988.00;;;;4958635;28;20592;-69
2022/10/27 07:48:38;;;;;;;12.63;6.13;;;11.40;99.90;12.80;97999.00;;;;4958104;28;20259;-69
2022/10/27 07:51:27;;;;;;;7.70;4.60;;;11.50;99.90;12.60;98006.00;;;;4960217;28;20356;-69
2022/10/27 07:54:15;;;;;;;9.37;6.17;;;11.60;99.90;13.20;98011.00;;;;4946719;28;20197;-68
2022/10/27 07:57:04;;;;;;;10.40;6.13;;;11.70;99.90;13.70;98004.00;;;;4954800;28;20208;-68
2022/10/27 07:59:53;;;;;;;9.50;5.97;;;11.90;99.90;14.00;98009.00;;;;4944679;28;20216;-69
2022/10/27 08:02:44;;;;;;;6.97;4.90;;;12.10;99.90;14.40;98010.00;;;;4950622;28;20284;-69
2022/10/27 08:05:35;;;;;;;8.20;5.70;;;12.40;99.90;14.80;98010.00;;;;4955151;28;20219;-69
2022/10/27 08:08:23;;;;;;;9.23;5.53;;;12.70;99.90;15.00;98014.00;;;;4954687;28;20240;-69
2022/10/27 08:11:12;;;;;;;7.40;5.50;;;13.00;99.90;15.30;98018.00;;;;4954860;28;20302;-67
2022/10/27 08:14:01;;;;;;;9.73;5.77;;;13.30;99.90;15.50;98010.00;;;;4959591;28;20203;-69
2022/10/27 08:16:49;;;;;;;8.90;5.47;;;13.50;99.90;15.70;98011.00;;;;4956834;28;20203;-69
2022/10/27 08:19:39;;;;;;;10.97;5.87;;;13.80;99.90;15.90;98023.00;;;;4956646;28;20201;-69
2022/10/27 08:22:28;;;;;;;9.30;5.80;;;14.00;99.90;16.20;98024.00;;;;4961652;28;20967;-70
2022/10/27 08:25:17;;;;;;;11.10;5.47;;;14.30;99.90;16.40;98027.00;;;;4954882;28;20214;-69
2022/10/27 08:28:06;;;;;;;11.30;5.17;;;14.40;99.90;16.50;98032.00;;;;4952769;28;20204;-69
2022/10/27 08:30:54;;;;;;;12.37;5.73;;;14.60;99.90;16.60;98034.00;;;;4943959;29;20735;-69
2022/10/27 08:33:43;;;;;;;12.10;5.33;;;14.80;99.90;16.70;98025.00;;;;4952498;28;20238;-69
2022/10/27 08:36:37;;;;;;;9.73;4.57;;;14.90;99.90;16.80;98031.00;;;;4949436;28;20628;-69
2022/10/27 08:39:26;;;;;;;8.63;4.80;;;15.10;99.90;16.90;98034.00;;;;4946969;28;20228;-69
2022/10/27 08:42:31;;;;;;;7.47;4.70;;;15.20;99.90;17.10;98033.00;;;;4957153;28;20262;-69
2022/10/27 08:45:25;;;;;;;8.80;5.70;;;15.30;99.90;17.30;98033.00;;;;4958009;28;20254;-69
2022/10/27 08:48:15;;;;;;;9.17;5.17;;;15.40;99.90;17.40;98032.00;;;;4950448;28;20216;-69
2022/10/27 08:51:05;;;;;;;5.97;4.33;;;15.60;99.90;17.40;98023.00;;;;4954662;28;20224;-69
2022/10/27 08:53:55;;;;;;;8.43;4.63;;;15.60;99.90;17.60;98023.00;;;;4954993;28;20244;-69
2022/10/27 08:56:45;;;;;;;7.90;4.37;;;15.80;99.90;17.70;98016.00;;;;4959436;28;20311;-70
2022/10/27 08:59:35;;;;;;;6.53;4.23;;;15.90;99.90;17.80;98028.00;;;;4959273;28;20227;-69
2022/10/27 09:02:52;;;;;;;7.53;4.13;;;16.10;99.90;18.00;98037.00;;;;4953671;28;20239;-69
2022/10/27 09:05:57;;;;;;;7.63;5.30;;;16.20;99.90;18.30;98024.00;;;;4955011;28;20204;-70
2022/10/27 09:08:57;;;;;;;4.70;4.13;;;16.30;99.90;18.30;98024.00;;;;4953789;28;20197;-70
2022/10/27 09:11:57;;;;;;;7.77;4.10;;;16.50;99.90;18.40;98023.00;;;;4953802;28;20367;-70
2022/10/27 09:15:19;;;;;;;5.17;4.40;;;16.60;99.90;18.50;98026.00;;;;4958894;28;20216;-69
2022/10/27 09:18:16;;;;;;;7.50;3.90;;;16.70;99.90;18.70;98026.00;;;;4955073;28;20212;-69
2022/10/27 09:21:13;;;;;;;6.13;4.10;;;16.80;99.90;18.80;98022.00;;;;4956681;28;20231;-70
2022/10/27 09:24:11;;;;;;;6.27;4.50;;;16.90;99.90;18.90;98014.00;;;;4958525;28;20571;-69
2022/10/27 09:27:01;;;;;;;7.63;3.73;;;17.00;99.90;19.30;98016.00;;;;4959283;28;20258;-69
2022/10/27 09:29:52;;;;;;;5.03;3.87;;;17.10;99.90;19.40;98018.00;;;;4957194;28;20283;-69
2022/10/27 09:32:46;;;;;;;8.40;4.43;;;17.30;99.90;19.50;98023.00;;;;4960539;28;20234;-70
2022/10/27 09:35:35;;;;;;;5.83;4.13;;;17.50;99.90;19.70;98017.00;;;;4955116;28;20746;-69
2022/10/27 09:38:26;;;;;;;4.83;4.30;;;17.60;99.90;19.80;98010.00;;;;4957353;28;20199;-70
2022/10/27 09:41:16;;;;;;;8.33;4.80;;;17.70;99.90;20.00;98012.00;;;;4952889;28;20718;-69
2022/10/27 09:44:17;;;;;;;5.33;4.03;;;17.90;99.90;20.30;98007.00;;;;4949709;28;20236;-69
2022/10/27 09:47:06;;;;;;;6.90;4.60;;;18.10;99.90;20.50;98014.00;;;;4949740;28;20223;-70
2022/10/27 09:49:54;;;;;;;8.60;4.80;;;18.30;99.90;20.60;98008.00;;;;4952080;28;20207;-70
2022/10/27 09:52:44;;;;;;;8.60;4.03;;;18.40;99.90;20.70;98005.00;;;;4956034;28;20259;-69
2022/10/27 09:55:49;;;;;;;5.13;4.20;;;18.60;99.90;20.90;98004.00;;;;4957511;28;20199;-69
2022/10/27 09:58:56;;;;;;;5.17;4.07;;;18.70;99.90;21.20;98013.00;;;;4956632;28;20204;-70
2022/10/27 10:01:55;;;;;;;6.87;4.03;;;18.90;99.90;21.20;98007.00;;;;4956197;28;20762;-69
2022/10/27 10:04:46;;;;;;;6.13;3.87;;;19.10;99.90;21.50;98009.00;;;;4953303;28;20204;-70
2022/10/27 10:07:38;;;;;;;8.37;5.30;;;19.20;99.90;21.90;98001.00;;;;4956294;28;20277;-70
2022/10/27 10:10:28;;;;;;;4.07;3.60;;;19.40;99.90;21.90;98010.00;;;;4954186;28;20208;-70
2022/10/27 10:13:17;;;;;;;6.63;3.60;;;19.60;99.90;22.30;98006.00;;;;4948015;28;20219;-70
2022/10/27 10:16:13;;;;;;;7.10;4.47;;;19.90;99.90;22.90;98005.00;;;;4949747;29;20250;-69
2022/10/27 10:19:05;;;;;;;5.57;3.80;;;20.50;99.90;23.20;98001.00;;;;4952169;28;20200;-69
2022/10/27 10:21:57;;;;;;;5.57;4.50;;;21.30;99.90;23.60;97999.00;;;;4932720;28;20232;-70
2022/10/27 10:24:47;;;;;;;6.00;3.87;;;21.90;99.90;23.60;98001.00;;;;4932929;29;20291;-70
2022/10/27 10:27:37;;;;;;;6.33;3.67;;;22.20;99.90;23.90;97992.00;;;;4943641;28;20221;-69
2022/10/27 10:30:27;;;;;;;5.80;3.77;;;22.50;99.90;24.40;97995.00;;;;4932110;28;20212;-69
2022/10/27 10:33:17;;;;;;;4.43;3.50;;;22.80;99.90;24.60;97996.00;;;;4938753;28;20230;-70
2022/10/27 10:36:20;;;;;;;6.17;2.90;;;23.10;99.90;25.10;97987.00;;;;4955297;28;20224;-69
2022/10/27 10:39:24;;;;;;;5.80;2.37;;;23.40;99.90;25.40;97987.00;;;;4954082;28;20245;-69
2022/10/27 10:42:16;;;;;;;3.60;2.67;;;23.60;99.90;25.40;97984.00;;;;4945972;28;20266;-70
2022/10/27 10:45:18;;;;;;;4.60;4.00;;;23.80;99.90;26.00;97987.00;;;;4954760;28;20239;-70
2022/10/27 10:48:25;;;;;;;6.77;3.13;;;24.00;99.90;26.50;97993.00;;;;4949997;28;20208;-70
2022/10/27 10:51:24;;;;;;;4.40;2.30;;;24.40;99.90;26.30;97986.00;;;;4950859;28;20313;-70
2022/10/27 10:54:23;;;;;;;4.33;3.03;;;24.60;99.50;26.50;97989.00;;;;4953787;28;20302;-69
2022/10/27 10:57:27;;;;;;;3.97;2.60;;;24.80;97.90;26.70;97978.00;;;;4951142;28;20201;-71
2022/10/27 11:00:19;;;;;;;5.03;2.50;;;25.00;97.60;26.50;97971.00;;;;4948299;28;20234;-70
2022/10/27 11:03:16;;;;;;;5.53;2.80;;;25.20;97.30;26.30;97978.00;;;;4946038;29;20215;-71
2022/10/27 11:06:18;;;;;;;5.03;2.63;;;25.20;94.20;26.20;97969.00;;;;4951110;28;20831;-70
2022/10/27 11:09:10;;;;;;;4.17;2.83;;;25.10;95.40;27.10;97967.00;;;;4945025;28;20200;-70
2022/10/27 11:12:00;;;;;;;5.17;2.43;;;25.30;95.60;27.60;97973.00;;;;4953206;28;20314;-70
2022/10/27 11:14:51;;;;;;;5.27;1.97;;;25.50;95.20;27.00;97972.00;;;;4944830;28;20258;-70
2022/10/27 11:17:42;;;;;;;1.87;1.67;;;25.70;93.30;27.70;97970.00;;;;4955740;28;20555;-70
2022/10/27 11:20:36;;;;;;;4.17;2.00;;;25.80;92.10;27.90;97971.00;;;;4952527;28;20689;-71
2022/10/27 11:23:33;;;;;;;2.93;2.00;;;26.00;91.80;26.80;97967.00;;;;4953729;28;20301;-71
2022/10/27 11:26:27;;;;;;;3.53;2.00;;;26.10;90.10;27.20;97961.00;;;;4951801;28;20211;-71
2022/10/27 11:29:22;;;;;;;5.63;2.10;;;26.00;90.00;27.70;97957.00;;;;4943261;28;20219;-71
2022/10/27 11:32:17;;;;;;;3.63;2.00;;;26.00;90.10;28.30;97961.00;;;;4940433;28;20624;-71
2022/10/27 11:35:19;;;;;;;5.53;2.10;;;26.10;90.30;28.70;97964.00;;;;4949863;29;20215;-71
2022/10/27 11:38:16;;;;;;;4.45;2.08;;;26.40;87.70;28.70;97957.00;;;;4952126;28;20221;-71
2022/10/27 11:41:15;;;;;;;3.25;2.20;;;26.60;86.90;28.00;97957.00;;;;4946336;29;20220;-71
2022/10/27 11:44:14;;;;;;;3.28;1.70;;;26.80;85.30;27.30;97956.00;;;;4952903;28;20216;-70
2022/10/27 11:47:13;;;;;;;1.80;1.42;;;26.80;81.20;26.50;97952.00;;;;4951822;28;20208;-71
2022/10/27 11:50:06;;;;;;;4.38;1.88;;;26.40;79.10;26.40;97945.00;;;;4951576;28;20303;-70
2022/10/27 11:52:57;;;;;;;2.95;1.25;;;26.10;79.60;25.90;97943.00;;;;4946670;28;20320;-71
2022/10/27 11:56:09;;;;;;;7.53;1.83;;;25.50;79.90;25.70;97939.00;;;;4945227;29;20209;-71
2022/10/27 11:59:18;;;;;;;5.67;2.33;;;25.10;81.10;27.90;97943.00;;;;4950453;28;20751;-71
2022/10/27 12:02:29;;;;;;;2.50;1.60;;;25.30;82.00;28.60;97939.00;;;;4950785;28;20237;-71
2022/10/27 12:05:25;;;;;;;6.95;1.88;;;25.90;81.90;28.00;97936.00;;;;4954155;28;20203;-71
2022/10/27 12:08:25;;;;;;;3.10;1.40;;;26.20;79.20;29.40;97933.00;;;;4958339;28;20533;-71
2022/10/27 12:11:37;;;;;;;4.32;1.35;;;26.70;78.10;29.80;97924.00;;;;4957865;28;20260;-71
2022/10/27 12:14:32;;;;;;;4.18;2.20;;;27.20;77.50;30.20;97929.00;;;;4961613;28;20229;-71
2022/10/27 12:17:29;;;;;;;4.88;1.40;;;27.60;76.90;26.90;97926.00;;;;4955226;28;20217;-72
2022/10/27 12:20:25;;;;;;;3.63;1.60;;;27.60;69.70;27.10;97910.00;;;;4958387;28;20211;-69
2022/10/27 12:23:21;;;;;;;7.57;1.27;;;26.80;71.10;28.50;97923.00;;;;4958718;28;20246;-70
2022/10/27 12:26:16;;;;;;;2.30;2.05;;;26.80;71.60;28.40;97924.00;;;;4955837;28;20851;-70
2022/10/27 12:29:08;;;;;;;1.77;1.27;;;26.90;70.30;28.90;97921.00;;;;4953853;28;20614;-69
2022/10/27 12:32:03;;;;;;;3.20;1.65;;;27.20;70.20;30.20;97921.00;;;;4959608;28;20291;-70
2022/10/27 12:35:01;;;;;;;2.45;1.23;;;27.70;69.00;29.40;97923.00;;;;4941954;28;20219;-70
2022/10/27 12:37:58;;;;;;;1.75;1.35;;;28.20;66.20;29.50;97920.00;;;;4948947;28;20208;-70
2022/10/27 12:40:58;;;;;;;2.33;1.33;;;28.40;65.10;29.40;97921.00;;;;4953845;28;20610;-69
2022/10/27 12:43:58;;;;;;;4.68;1.10;;;28.40;65.60;28.90;97920.00;;;;4955974;28;20231;-70
2022/10/27 12:47:11;;;;;;;2.42;1.15;;;28.20;65.40;30.60;97916.00;;;;4955346;28;20228;-69
2022/10/27 12:50:18;;;;;;;2.85;1.42;;;28.40;64.10;29.70;97911.00;;;;4950789;28;20207;-69
2022/10/27 12:53:26;;;;;;;3.50;1.40;;;28.60;62.90;28.50;97907.00;;;;4956859;28;20744;-72